Ana Sayfa
METAR-TAF:

METAR-TAF

Havaalanları :

Nevşehir Kapadokya Havalimanı

Nevşehir, Türkiye

Enlem: 38-46-12N, Boylam: 034-32-30E, yükseklik: 945 m

Güncel hava durumu gözlemi

Rapor saat 14:50 UTC de 49 dakika önce yapıldı.
Rüzgar batı/kuzeybatıdan 6 kt
Sıcaklık 19°C
Nem 49%
Basınç 1015 hPa
Görüş mesafesi 10 km veya daha fazla
4000 ft yükseklikte az bulutlu
18000 ft yükseklikte parçalı çok bulutlu

METAR: LTAZ 231450Z 30006KT 9999 FEW040 BKN180 19/08 Q1015 RMK RWY29 30006KT

Saat: 18:39 (15:39 UTC)

Tahmin

Rapor saat 10:40 UTC de 4 saat ve 59 dakika önce yapıldı.
Ayın 23'si saat 12 UTC'den ayın 24'si saat 12 UTC'ye kadar geçerli Tahmin
Rüzgar değişken yönden 2 kt
Görüş mesafesi 10 km veya daha fazla
4000 ft yükseklikte parçalı bulutlu
18000 ft yükseklikte parçalı çok bulutlu
Dönüşüyor
ayın 24'si saat 08 UTC'den ayın 24'si saat 11 UTC'ye kadar
Rüzgar güneybatıdan 12 kt

TAF: LTAZ 231040Z 2312/2412 VRB02KT 9999 SCT040 BKN180 BECMG 2408/2411 23012KT

4.000'den fazla havaalanı için hava durumu gözlemleri ve tahminleri (METAR ve TAF raporları).

Kullanılabilir istasyonlar harita üzerinde sarı ve kırmızı noktalarla gösterilir.

İstasyonun adını görmek için fareyi noktanın üzerinde gezdirin.

Sonrasında hava gözlem ve tahminlerini görmek için tıklayın.

Haritayı değiştirmek için: yaklaştırmak için siyah artı işaretli yeşil düğmeye ve uzaklaştırmak için de eksi işaretli düğmeye hızla tıklayın; bitişik haritalar için yeşil okları kullanın.


METAR-TAF: